createdAt,value
2024-05-09T00:00:35.556Z,10.32
2024-05-09T00:03:10.169Z,8.55
2024-05-09T00:05:38.403Z,7.60
2024-05-09T00:08:06.153Z,7.50
2024-05-09T00:10:37.161Z,8.25
2024-05-09T00:13:07.067Z,7.20
2024-05-09T00:15:34.924Z,8.38
2024-05-09T00:18:02.482Z,7.75
2024-05-09T00:20:37.364Z,8.30
2024-05-09T00:23:08.109Z,6.47
2024-05-09T00:25:35.294Z,7.75
2024-05-09T00:28:02.162Z,7.63
2024-05-09T00:30:34.282Z,8.63
2024-05-09T00:33:04.875Z,7.57
2024-05-09T00:35:32.458Z,6.40
2024-05-09T00:37:59.154Z,7.07
2024-05-09T00:40:37.223Z,5.80
2024-05-09T00:43:06.854Z,8.55
2024-05-09T00:45:36.738Z,7.00
2024-05-09T00:48:09.382Z,7.38
2024-05-09T00:50:40.193Z,7.70
2024-05-09T00:53:08.286Z,8.15
2024-05-09T00:55:36.557Z,7.45
2024-05-09T00:58:05.027Z,8.23
2024-05-09T01:00:38.511Z,7.82
2024-05-09T01:03:10.004Z,4.22
2024-05-09T01:05:39.082Z,4.25
2024-05-09T01:08:06.651Z,4.78
2024-05-09T01:10:35.148Z,6.40
2024-05-09T01:13:06.918Z,5.35
2024-05-09T01:15:34.552Z,5.45
2024-05-09T01:18:05.889Z,5.93
2024-05-09T01:20:40.851Z,5.72
2024-05-09T01:23:10.912Z,6.95
2024-05-09T01:25:37.863Z,6.88
2024-05-09T01:28:04.851Z,7.18
2024-05-09T01:30:35.144Z,7.20
2024-05-09T01:33:09.012Z,7.13
2024-05-09T01:35:37.550Z,5.78
2024-05-09T01:38:04.659Z,5.88
2024-05-09T01:43:07.670Z,6.25
2024-05-09T01:45:34.576Z,4.97
2024-05-09T01:48:01.954Z,6.13
2024-05-09T01:50:37.541Z,8.65
2024-05-09T01:53:09.498Z,6.57
2024-05-09T01:55:36.148Z,7.50
2024-05-09T01:58:02.684Z,6.05
2024-05-09T02:00:38.152Z,7.22
2024-05-09T02:03:10.218Z,8.93
2024-05-09T02:05:37.720Z,6.80
2024-05-09T02:08:05.384Z,6.28
2024-05-09T02:10:33.170Z,6.30
2024-05-09T02:13:00.215Z,7.85
2024-05-09T02:15:26.791Z,8.20
2024-05-09T02:17:53.658Z,6.80
2024-05-09T02:20:30.070Z,6.13
2024-05-09T02:23:04.020Z,6.65
2024-05-09T02:25:31.441Z,7.43
2024-05-09T02:27:58.017Z,6.35
2024-05-09T02:30:31.166Z,6.03
2024-05-09T02:33:05.853Z,7.38
2024-05-09T02:35:32.762Z,5.10
2024-05-09T02:37:59.554Z,6.13
2024-05-09T02:40:35.061Z,8.68
2024-05-09T02:43:04.340Z,8.52
2024-05-09T02:45:30.915Z,7.32
2024-05-09T02:47:57.990Z,6.78
2024-05-09T02:50:33.159Z,5.55
2024-05-09T02:53:04.462Z,7.85
2024-05-09T02:55:31.130Z,6.30
2024-05-09T02:57:57.910Z,5.68
2024-05-09T03:00:33.676Z,5.13
2024-05-09T03:05:31.751Z,5.93
2024-05-09T03:07:58.457Z,6.57
2024-05-09T03:10:28.647Z,5.25
2024-05-09T03:12:55.893Z,7.85
2024-05-09T03:15:22.740Z,7.57
2024-05-09T03:17:49.616Z,5.97
2024-05-09T03:20:23.334Z,6.93
2024-05-09T03:22:53.466Z,6.25
2024-05-09T03:25:21.373Z,7.35
2024-05-09T03:27:48.289Z,7.35
2024-05-09T03:30:22.133Z,6.15
2024-05-09T03:32:56.546Z,6.97
2024-05-09T03:35:23.246Z,5.55
2024-05-09T03:37:49.807Z,7.32
2024-05-09T03:40:23.341Z,7.00
2024-05-09T03:42:52.728Z,6.15
2024-05-09T03:45:19.247Z,5.75
2024-05-09T03:47:45.990Z,5.75
2024-05-09T03:50:18.520Z,7.90
2024-05-09T03:52:52.557Z,8.02
2024-05-09T03:55:19.160Z,6.90
2024-05-09T03:57:45.671Z,7.88
2024-05-09T04:00:18.151Z,7.32
2024-05-09T04:02:52.748Z,5.68
2024-05-09T04:05:19.386Z,9.38
2024-05-09T04:07:46.113Z,7.63
2024-05-09T04:10:21.060Z,6.10
2024-05-09T04:12:54.539Z,7.50
2024-05-09T04:15:21.206Z,8.40
2024-05-09T04:17:51.376Z,7.85
2024-05-09T04:20:29.124Z,10.95
2024-05-09T04:23:03.688Z,8.63
2024-05-09T04:25:32.294Z,8.60
2024-05-09T04:27:58.852Z,7.95
2024-05-09T04:30:34.616Z,8.07
2024-05-09T04:35:32.479Z,5.30
2024-05-09T04:37:59.085Z,7.38
2024-05-09T04:40:32.971Z,7.80
2024-05-09T04:43:02.871Z,8.50
2024-05-09T04:45:29.365Z,6.68
2024-05-09T04:47:56.057Z,6.75
2024-05-09T04:50:30.333Z,8.93
2024-05-09T04:53:03.530Z,7.75
2024-05-09T04:55:30.364Z,6.75
2024-05-09T04:57:56.959Z,7.07
2024-05-09T05:00:32.392Z,9.20
2024-05-09T05:03:14.257Z,9.13
2024-05-09T05:05:43.538Z,9.27
2024-05-09T05:08:16.448Z,7.78
2024-05-09T05:10:44.326Z,8.07
2024-05-09T05:13:23.745Z,8.07
2024-05-09T05:18:19.880Z,9.27
2024-05-09T05:20:46.908Z,8.35
2024-05-09T05:23:15.482Z,9.68
2024-05-09T05:25:42.876Z,11.55
2024-05-09T05:30:37.500Z,10.20
2024-05-09T05:33:06.338Z,8.95
2024-05-09T05:35:34.359Z,9.30
2024-05-09T05:38:01.299Z,9.60
2024-05-09T05:40:35.419Z,10.32
2024-05-09T05:43:05.585Z,10.55
2024-05-09T05:45:32.123Z,9.82
2024-05-09T05:47:59.954Z,10.32
2024-05-09T05:50:32.670Z,12.75
2024-05-09T05:53:03.218Z,12.65
2024-05-09T05:57:56.326Z,12.38
2024-05-09T06:00:29.810Z,13.50
2024-05-09T06:03:04.430Z,14.18
2024-05-09T06:05:31.229Z,14.07
2024-05-09T06:07:57.953Z,12.73
2024-05-09T06:10:30.030Z,13.27
2024-05-09T06:13:04.905Z,15.23
2024-05-09T06:15:31.468Z,14.70
2024-05-09T06:17:58.151Z,17.63
2024-05-09T06:20:34.297Z,15.55
2024-05-09T06:23:03.954Z,16.85
2024-05-09T06:25:30.518Z,14.68
2024-05-09T06:27:57.116Z,16.35
2024-05-09T06:30:34.713Z,16.25
2024-05-09T06:33:06.375Z,19.20
2024-05-09T06:35:33.924Z,17.27
2024-05-09T06:38:00.964Z,16.35
2024-05-09T06:40:36.254Z,15.30
2024-05-09T06:43:05.641Z,18.73
2024-05-09T06:45:32.179Z,18.08
2024-05-09T06:47:58.852Z,16.40
2024-05-09T06:50:28.548Z,18.88
2024-05-09T06:53:01.920Z,15.10
2024-05-09T06:55:28.481Z,16.08
2024-05-09T06:57:55.086Z,17.15
2024-05-09T07:00:27.737Z,15.90
2024-05-09T07:03:05.620Z,17.25
2024-05-09T07:05:33.291Z,13.70
2024-05-09T07:07:59.943Z,14.05
2024-05-09T07:10:32.837Z,15.02
2024-05-09T07:13:01.867Z,16.20
2024-05-09T07:15:28.424Z,13.98
2024-05-09T07:17:55.271Z,16.25
2024-05-09T07:20:31.713Z,16.02
2024-05-09T07:23:05.452Z,15.73
2024-05-09T07:25:32.210Z,13.43
2024-05-09T07:27:58.877Z,12.50
2024-05-09T07:30:32.813Z,12.35
2024-05-09T07:33:01.949Z,12.73
2024-05-09T07:35:29.623Z,12.93
2024-05-09T07:37:56.544Z,15.40
2024-05-09T07:40:32.375Z,17.10
2024-05-09T07:43:07.082Z,14.02
2024-05-09T07:52:23.404Z,11.75
2024-05-09T07:53:38.602Z,11.95
2024-05-09T07:56:07.531Z,13.73
2024-05-09T07:58:34.423Z,12.35
2024-05-09T08:01:02.635Z,11.88
2024-05-09T08:03:29.491Z,11.55
2024-05-09T08:05:56.268Z,9.80
2024-05-09T08:08:23.221Z,15.35
2024-05-09T08:13:16.943Z,14.82
2024-05-09T08:15:43.608Z,10.73
2024-05-09T08:18:10.884Z,14.15
2024-05-09T08:20:41.876Z,14.23
2024-05-09T08:23:08.417Z,12.30
2024-05-09T08:25:34.938Z,12.30
2024-05-09T08:28:03.569Z,10.82
2024-05-09T08:30:36.329Z,12.90
2024-05-09T08:33:05.465Z,10.00
2024-05-09T08:35:33.137Z,11.52
2024-05-09T08:37:59.762Z,11.80
2024-05-09T08:40:33.733Z,10.40
2024-05-09T08:43:06.637Z,11.15
2024-05-09T08:45:34.840Z,11.88
2024-05-09T08:48:05.764Z,10.65
2024-05-09T08:50:38.699Z,11.00
2024-05-09T08:53:06.886Z,11.70
2024-05-09T08:55:33.517Z,11.02
2024-05-09T08:58:03.482Z,12.38
2024-05-09T09:00:36.764Z,9.98
2024-05-09T09:03:09.096Z,12.00
2024-05-09T09:05:39.012Z,10.68
2024-05-09T09:08:08.056Z,12.23
2024-05-09T09:10:35.254Z,11.88
2024-05-09T09:13:04.362Z,11.88
2024-05-09T09:15:31.527Z,12.20
2024-05-09T09:20:34.130Z,10.73
2024-05-09T09:23:03.903Z,11.60
2024-05-09T09:25:30.693Z,11.10
2024-05-09T09:27:58.432Z,10.68
2024-05-09T09:30:35.066Z,12.57
2024-05-09T09:33:05.151Z,10.27
2024-05-09T09:35:32.584Z,9.23
2024-05-09T09:38:02.588Z,9.68
2024-05-09T09:40:36.180Z,10.75
2024-05-09T09:43:13.841Z,8.43
2024-05-09T09:45:43.326Z,9.70
2024-05-09T09:48:10.518Z,10.05
2024-05-09T09:50:37.997Z,9.25
2024-05-09T09:53:07.047Z,10.50
2024-05-09T09:55:34.697Z,10.30
2024-05-09T09:58:01.417Z,9.52
2024-05-09T10:00:32.971Z,10.65
2024-05-09T10:03:01.820Z,9.38
2024-05-09T10:05:29.922Z,9.48
2024-05-09T10:07:58.344Z,9.65
2024-05-09T10:10:32.168Z,6.90
2024-05-09T10:13:00.533Z,8.40
2024-05-09T10:15:27.601Z,7.82
2024-05-09T10:17:54.732Z,8.27
2024-05-09T10:20:25.122Z,7.15
2024-05-09T10:22:54.743Z,8.98
2024-05-09T10:25:21.980Z,7.68
2024-05-09T10:27:55.423Z,8.05
2024-05-09T10:30:29.823Z,7.63
2024-05-09T10:33:02.455Z,6.63
2024-05-09T10:35:32.039Z,6.70
2024-05-09T10:38:08.637Z,8.43
2024-05-09T10:40:36.646Z,7.97
2024-05-09T10:43:05.863Z,7.47
2024-05-09T10:45:35.301Z,7.63
2024-05-09T10:48:02.540Z,7.50
2024-05-09T10:50:34.016Z,9.88
2024-05-09T10:53:02.479Z,6.38
2024-05-09T10:55:29.167Z,9.88
2024-05-09T10:57:55.810Z,5.43
2024-05-09T11:00:27.824Z,7.50
2024-05-09T11:03:00.189Z,8.50
2024-05-09T11:05:26.999Z,8.30
2024-05-09T11:07:53.952Z,7.93
2024-05-09T11:10:27.555Z,5.65
2024-05-09T11:13:00.078Z,7.30
2024-05-09T11:15:26.657Z,10.00
2024-05-09T11:17:53.337Z,8.73
2024-05-09T11:20:26.867Z,8.40
2024-05-09T11:22:57.789Z,5.25
2024-05-09T11:25:24.452Z,6.70
2024-05-09T11:27:51.213Z,9.73
2024-05-09T11:30:26.723Z,7.43
2024-05-09T11:32:58.734Z,6.65
2024-05-09T11:35:26.469Z,5.70
2024-05-09T11:37:53.140Z,8.52
2024-05-09T11:40:25.444Z,8.07
2024-05-09T11:42:55.266Z,7.75
2024-05-09T11:45:21.996Z,8.43
2024-05-09T11:47:49.264Z,9.50
2024-05-09T11:50:22.699Z,11.18
2024-05-09T11:52:56.213Z,11.70
2024-05-09T11:55:26.800Z,10.68
2024-05-09T11:57:54.659Z,10.65
2024-05-09T12:00:29.463Z,8.18
2024-05-09T12:03:04.764Z,9.68
2024-05-09T12:05:32.637Z,9.88
2024-05-09T12:07:59.483Z,9.35
2024-05-09T12:10:32.326Z,9.18
2024-05-09T12:13:01.648Z,11.13
2024-05-09T12:15:28.311Z,9.85
2024-05-09T12:17:57.327Z,9.35
2024-05-09T12:20:33.063Z,9.75
2024-05-09T12:23:03.864Z,7.30
2024-05-09T12:25:30.615Z,10.70
2024-05-09T12:27:57.331Z,10.90
2024-05-09T12:30:32.812Z,7.32
2024-05-09T12:33:04.285Z,9.10
2024-05-09T12:35:31.203Z,10.63
2024-05-09T12:37:57.749Z,8.55
2024-05-09T12:43:04.361Z,10.63
2024-05-09T12:45:31.368Z,8.45
2024-05-09T12:47:58.360Z,9.70
2024-05-09T12:50:31.631Z,9.13
2024-05-09T12:53:00.404Z,8.43
2024-05-09T12:55:28.124Z,9.68
2024-05-09T12:57:55.307Z,8.18
2024-05-09T13:00:28.183Z,9.43
2024-05-09T13:03:00.239Z,8.15
2024-05-09T13:05:27.260Z,10.70
2024-05-09T13:07:54.077Z,8.98
2024-05-09T13:10:28.981Z,7.95
2024-05-09T13:12:59.587Z,11.93
2024-05-09T13:15:26.392Z,10.05
2024-05-09T13:17:53.151Z,10.90
2024-05-09T13:20:28.948Z,10.32
2024-05-09T13:23:01.570Z,8.82
2024-05-09T13:25:28.177Z,13.35
2024-05-09T13:27:55.344Z,9.52
2024-05-09T13:30:29.484Z,11.40
2024-05-09T13:33:05.748Z,9.93
2024-05-09T13:35:34.383Z,9.80
2024-05-09T13:38:01.962Z,10.48
2024-05-09T13:40:33.619Z,8.43
2024-05-09T13:43:02.699Z,10.43
2024-05-09T13:45:29.370Z,10.98
2024-05-09T13:47:56.428Z,10.75
2024-05-09T13:50:30.518Z,9.23
2024-05-09T13:53:00.734Z,9.85
2024-05-09T13:55:27.832Z,10.52
2024-05-09T13:57:54.503Z,11.65
2024-05-09T14:02:50.526Z,8.95
2024-05-09T14:05:17.461Z,12.25
2024-05-09T14:07:44.220Z,8.50
2024-05-09T14:10:19.812Z,9.32
2024-05-09T14:12:52.483Z,8.45
2024-05-09T14:15:19.011Z,9.93
2024-05-09T14:20:16.646Z,11.10
2024-05-09T14:22:49.799Z,10.57
2024-05-09T14:27:43.376Z,10.30
2024-05-09T14:30:18.070Z,9.35
2024-05-09T14:32:52.145Z,11.75
2024-05-09T14:35:19.001Z,13.70
2024-05-09T14:37:45.654Z,10.05
2024-05-09T14:43:02.621Z,10.95
2024-05-09T14:45:29.563Z,9.40
2024-05-09T14:47:56.355Z,10.65
2024-05-09T14:50:28.204Z,13.23
2024-05-09T14:53:01.599Z,11.25
2024-05-09T14:55:28.341Z,10.52
2024-05-09T14:57:55.389Z,11.15
2024-05-09T15:00:28.647Z,12.50
2024-05-09T15:02:59.546Z,9.25
2024-05-09T15:05:26.307Z,10.90
2024-05-09T15:07:53.032Z,10.68
2024-05-09T15:10:26.956Z,10.60
2024-05-09T15:13:00.724Z,10.60
2024-05-09T15:15:27.283Z,11.20
2024-05-09T15:17:54.917Z,12.77
2024-05-09T15:20:30.760Z,10.77
2024-05-09T15:23:01.793Z,12.35
2024-05-09T15:25:28.445Z,10.63
2024-05-09T15:27:55.181Z,11.05
2024-05-09T15:30:29.948Z,11.52
2024-05-09T15:32:59.097Z,9.77
2024-05-09T15:35:25.733Z,10.23
2024-05-09T15:37:52.413Z,10.45
2024-05-09T15:40:26.642Z,10.50
2024-05-09T15:43:02.352Z,13.55
2024-05-09T15:45:29.405Z,11.15
2024-05-09T15:47:57.143Z,13.38
2024-05-09T15:50:35.188Z,13.63
2024-05-09T15:53:06.195Z,14.57
2024-05-09T15:55:34.320Z,12.45
2024-05-09T15:58:02.169Z,18.05
2024-05-09T16:00:37.170Z,14.55
2024-05-09T16:03:07.651Z,16.80
2024-05-09T16:05:34.528Z,14.10
2024-05-09T16:08:01.262Z,15.93
2024-05-09T16:10:32.621Z,11.70
2024-05-09T16:13:01.153Z,11.30
2024-05-09T16:15:27.930Z,13.65
2024-05-09T16:17:55.026Z,10.25
2024-05-09T16:20:33.993Z,12.68
2024-05-09T16:23:06.411Z,13.70
2024-05-09T16:25:33.067Z,14.80
2024-05-09T16:27:59.945Z,14.00
2024-05-09T16:30:33.847Z,15.00
2024-05-09T16:33:04.411Z,14.32
2024-05-09T16:35:31.825Z,15.05
2024-05-09T16:37:58.621Z,12.10
2024-05-09T16:40:34.314Z,13.70
2024-05-09T16:43:05.773Z,13.27
2024-05-09T16:45:33.157Z,13.73
2024-05-09T16:48:00.408Z,15.25
2024-05-09T16:50:32.421Z,14.23
2024-05-09T16:53:01.780Z,15.88
2024-05-09T16:55:28.484Z,15.82
2024-05-09T16:57:55.666Z,14.48
2024-05-09T17:00:31.554Z,15.27
2024-05-09T17:03:07.279Z,15.13
2024-05-09T17:05:34.645Z,17.02
2024-05-09T17:08:01.644Z,15.88
2024-05-09T17:10:32.909Z,16.90
2024-05-09T17:13:02.238Z,18.88
2024-05-09T17:15:29.079Z,15.70
2024-05-09T17:17:56.061Z,15.48
2024-05-09T17:20:29.770Z,16.92
2024-05-09T17:23:02.122Z,17.40
2024-05-09T17:25:29.078Z,16.52
2024-05-09T17:27:56.062Z,16.55
2024-05-09T17:30:29.128Z,17.08
2024-05-09T17:33:02.543Z,17.58
2024-05-09T17:35:29.229Z,17.50
2024-05-09T17:37:56.557Z,16.58
2024-05-09T17:40:30.999Z,18.08
2024-05-09T17:43:01.752Z,16.45
2024-05-09T17:45:28.467Z,15.82
2024-05-09T17:47:55.324Z,19.30
2024-05-09T17:50:27.954Z,16.25
2024-05-09T17:53:01.004Z,14.57
2024-05-09T17:55:27.781Z,17.23
2024-05-09T17:57:54.460Z,15.45
2024-05-09T18:00:29.254Z,15.73
2024-05-09T18:03:04.165Z,12.95
2024-05-09T18:05:31.202Z,15.45
2024-05-09T18:07:58.131Z,15.93
2024-05-09T18:10:32.564Z,16.70
2024-05-09T18:13:03.422Z,17.42
2024-05-09T18:15:30.129Z,16.55
2024-05-09T18:17:56.969Z,16.08
2024-05-09T18:20:33.113Z,15.02
2024-05-09T18:23:08.021Z,17.38
2024-05-09T18:25:34.745Z,17.73
2024-05-09T18:28:02.688Z,15.98
2024-05-09T18:30:34.697Z,17.60
2024-05-09T18:33:03.679Z,16.55
2024-05-09T18:35:30.606Z,15.48
2024-05-09T18:37:57.138Z,18.90
2024-05-09T18:42:53.149Z,17.35
2024-05-09T18:45:19.686Z,15.50
2024-05-09T18:50:20.424Z,17.77
2024-05-09T18:52:54.276Z,19.98
2024-05-09T18:57:47.259Z,14.05
2024-05-09T19:02:59.593Z,18.83
2024-05-09T19:05:26.359Z,17.83
2024-05-09T19:07:53.048Z,15.10
2024-05-09T19:10:22.935Z,17.25
2024-05-09T19:12:52.793Z,17.23
2024-05-09T19:17:47.244Z,17.45
2024-05-09T19:20:24.791Z,17.33
2024-05-09T19:22:55.903Z,16.40
2024-05-09T19:25:22.503Z,17.15
2024-05-09T19:30:25.302Z,20.08
2024-05-09T19:33:01.052Z,17.02
2024-05-09T19:35:27.751Z,17.77
2024-05-09T19:40:28.820Z,16.60
2024-05-09T19:42:58.646Z,19.55
2024-05-09T19:45:25.329Z,18.90
2024-05-09T19:47:52.333Z,18.90
2024-05-09T19:50:26.724Z,17.92
2024-05-09T19:52:59.595Z,18.42
2024-05-09T19:57:52.843Z,16.80
2024-05-09T20:02:56.357Z,18.08
2024-05-09T20:05:23.558Z,18.20
2024-05-09T20:07:50.304Z,22.67
2024-05-09T20:12:53.751Z,19.52
2024-05-09T20:15:20.934Z,20.88
2024-05-09T20:17:47.608Z,21.98
2024-05-09T20:20:24.506Z,21.45
2024-05-09T20:22:59.720Z,22.13
2024-05-09T20:25:26.368Z,21.45
2024-05-09T20:27:53.059Z,24.15
2024-05-09T20:30:28.881Z,23.83
2024-05-09T20:35:26.420Z,23.52
2024-05-09T20:37:53.076Z,22.92
2024-05-09T20:40:28.237Z,24.92
2024-05-09T20:42:58.954Z,22.70
2024-05-09T20:45:25.757Z,24.58
2024-05-09T20:47:52.539Z,29.73
2024-05-09T20:50:28.099Z,26.73
2024-05-09T20:53:02.831Z,27.52
2024-05-09T20:55:29.833Z,27.40
2024-05-09T20:57:57.020Z,29.67
2024-05-09T21:00:30.301Z,31.98
2024-05-09T21:03:06.195Z,32.33
2024-05-09T21:05:33.473Z,32.00
2024-05-09T21:08:00.303Z,27.33
2024-05-09T21:10:27.401Z,30.70
2024-05-09T21:12:57.771Z,31.00
2024-05-09T21:15:24.394Z,30.73
2024-05-09T21:17:50.884Z,33.05
2024-05-09T21:20:23.610Z,35.50
2024-05-09T21:22:54.837Z,36.55
2024-05-09T21:25:21.419Z,30.80
2024-05-09T21:27:47.967Z,35.70
2024-05-09T21:30:22.286Z,34.38
2024-05-09T21:32:54.986Z,31.90
2024-05-09T21:35:21.670Z,35.42
2024-05-09T21:37:48.216Z,30.50
2024-05-09T21:40:24.256Z,30.77
2024-05-09T21:42:57.827Z,29.50
2024-05-09T21:45:24.370Z,28.33
2024-05-09T21:47:50.927Z,26.67
2024-05-09T21:50:22.913Z,31.45
2024-05-09T21:52:54.739Z,27.25
2024-05-09T21:55:21.354Z,26.90
2024-05-09T22:00:27.931Z,29.98
2024-05-09T22:03:01.526Z,28.80
2024-05-09T22:05:28.127Z,26.92
2024-05-09T22:07:54.728Z,25.73
2024-05-09T22:10:26.472Z,29.05
2024-05-09T22:12:59.259Z,29.75
2024-05-09T22:15:26.547Z,25.65
2024-05-09T22:17:53.743Z,25.92
2024-05-09T22:20:28.769Z,25.85
2024-05-09T22:23:02.640Z,26.13
2024-05-09T22:27:58.438Z,25.50
2024-05-09T22:33:05.344Z,23.88
2024-05-09T22:35:32.135Z,27.30
2024-05-09T22:37:58.859Z,27.15
2024-05-09T22:40:37.865Z,28.75
2024-05-09T22:43:12.364Z,29.02
2024-05-09T22:45:39.175Z,27.08
2024-05-09T22:48:06.316Z,26.52
2024-05-09T22:50:33.776Z,26.98
2024-05-09T22:53:00.631Z,28.25
2024-05-09T22:55:27.183Z,28.50
2024-05-09T22:57:53.752Z,29.77
2024-05-09T23:00:29.179Z,27.67
2024-05-09T23:03:00.046Z,24.45
2024-05-09T23:05:26.989Z,27.40
2024-05-09T23:07:53.635Z,29.20
2024-05-09T23:10:27.738Z,29.25
2024-05-09T23:12:59.297Z,30.02
2024-05-09T23:17:52.705Z,29.02
2024-05-09T23:20:29.814Z,27.98
2024-05-09T23:23:03.281Z,28.90
2024-05-09T23:25:29.864Z,30.95
2024-05-09T23:27:56.544Z,27.35
2024-05-09T23:30:33.090Z,32.35
2024-05-09T23:33:04.820Z,29.20
2024-05-09T23:35:31.629Z,26.58
2024-05-09T23:37:58.170Z,25.15
2024-05-09T23:40:34.952Z,27.77
2024-05-09T23:43:05.597Z,27.20
2024-05-09T23:45:32.141Z,25.40
2024-05-09T23:47:58.885Z,26.70
2024-05-09T23:50:33.584Z,27.05
2024-05-09T23:53:03.246Z,30.30
2024-05-09T23:55:31.198Z,25.02
2024-05-09T23:57:58.127Z,25.77
